sensor_id;sensor_type;location;lat;lon;timestamp;P1;durP1;ratioP1;P2;durP2;ratioP2
4694;SDS011;2361;49.540;8.390;2023-03-31T00:00:17;2.37;;;0.70;;
4694;SDS011;2361;49.540;8.390;2023-03-31T00:02:44;1.00;;;0.77;;
4694;SDS011;2361;49.540;8.390;2023-03-31T00:05:11;0.30;;;0.30;;
4694;SDS011;2361;49.540;8.390;2023-03-31T00:07:43;1.90;;;0.80;;
4694;SDS011;2361;49.540;8.390;2023-03-31T00:10:11;0.40;;;0.40;;
4694;SDS011;2361;49.540;8.390;2023-03-31T00:12:43;11.67;;;1.20;;
4694;SDS011;2361;49.540;8.390;2023-03-31T00:15:11;0.60;;;0.60;;
4694;SDS011;2361;49.540;8.390;2023-03-31T00:17:38;2.00;;;0.80;;
4694;SDS011;2361;49.540;8.390;2023-03-31T00:20:06;0.60;;;0.60;;
4694;SDS011;2361;49.540;8.390;2023-03-31T00:22:38;1.27;;;0.60;;
4694;SDS011;2361;49.540;8.390;2023-03-31T00:25:10;1.87;;;0.87;;
4694;SDS011;2361;49.540;8.390;2023-03-31T00:27:40;3.33;;;0.80;;
4694;SDS011;2361;49.540;8.390;2023-03-31T00:30:13;0.30;;;0.30;;
4694;SDS011;2361;49.540;8.390;2023-03-31T00:32:41;0.40;;;0.40;;
4694;SDS011;2361;49.540;8.390;2023-03-31T00:35:08;0.70;;;0.70;;
4694;SDS011;2361;49.540;8.390;2023-03-31T00:37:35;0.70;;;0.50;;
4694;SDS011;2361;49.540;8.390;2023-03-31T00:40:03;1.17;;;0.60;;
4694;SDS011;2361;49.540;8.390;2023-03-31T00:42:40;0.80;;;0.43;;
4694;SDS011;2361;49.540;8.390;2023-03-31T00:47:46;0.30;;;0.30;;
4694;SDS011;2361;49.540;8.390;2023-03-31T00:50:33;0.60;;;0.60;;
4694;SDS011;2361;49.540;8.390;2023-03-31T00:53:08;2.80;;;0.77;;
4694;SDS011;2361;49.540;8.390;2023-03-31T00:55:50;0.60;;;0.60;;
4694;SDS011;2361;49.540;8.390;2023-03-31T00:58:21;2.37;;;0.87;;
4694;SDS011;2361;49.540;8.390;2023-03-31T01:00:56;1.73;;;0.90;;
4694;SDS011;2361;49.540;8.390;2023-03-31T01:03:24;3.07;;;1.17;;
4694;SDS011;2361;49.540;8.390;2023-03-31T01:05:53;0.40;;;0.40;;
4694;SDS011;2361;49.540;8.390;2023-03-31T01:08:24;0.50;;;0.50;;
4694;SDS011;2361;49.540;8.390;2023-03-31T01:10:53;0.83;;;0.60;;
4694;SDS011;2361;49.540;8.390;2023-03-31T01:13:26;0.60;;;0.60;;
4694;SDS011;2361;49.540;8.390;2023-03-31T01:15:56;1.50;;;0.73;;
4694;SDS011;2361;49.540;8.390;2023-03-31T01:18:23;0.80;;;0.40;;
4694;SDS011;2361;49.540;8.390;2023-03-31T01:24:13;0.80;;;0.63;;
4694;SDS011;2361;49.540;8.390;2023-03-31T01:32:44;1.23;;;0.90;;
4694;SDS011;2361;49.540;8.390;2023-03-31T01:39:41;1.03;;;0.73;;
4694;SDS011;2361;49.540;8.390;2023-03-31T01:45:30;1.77;;;0.93;;
4694;SDS011;2361;49.540;8.390;2023-03-31T01:48:20;1.50;;;0.60;;
4694;SDS011;2361;49.540;8.390;2023-03-31T01:51:44;1.27;;;1.00;;
4694;SDS011;2361;49.540;8.390;2023-03-31T01:57:08;4.17;;;1.00;;
4694;SDS011;2361;49.540;8.390;2023-03-31T01:59:56;2.60;;;1.10;;
4694;SDS011;2361;49.540;8.390;2023-03-31T02:02:35;4.80;;;1.37;;
4694;SDS011;2361;49.540;8.390;2023-03-31T02:08:03;1.90;;;0.97;;
4694;SDS011;2361;49.540;8.390;2023-03-31T02:10:36;3.50;;;1.20;;
4694;SDS011;2361;49.540;8.390;2023-03-31T02:13:06;2.63;;;1.20;;
4694;SDS011;2361;49.540;8.390;2023-03-31T02:15:37;1.30;;;1.20;;
4694;SDS011;2361;49.540;8.390;2023-03-31T02:18:08;6.37;;;1.10;;
4694;SDS011;2361;49.540;8.390;2023-03-31T02:20:39;1.63;;;1.50;;
4694;SDS011;2361;49.540;8.390;2023-03-31T02:23:08;0.60;;;0.60;;
4694;SDS011;2361;49.540;8.390;2023-03-31T02:25:40;1.33;;;0.97;;
4694;SDS011;2361;49.540;8.390;2023-03-31T02:28:16;1.90;;;0.80;;
4694;SDS011;2361;49.540;8.390;2023-03-31T02:33:33;2.10;;;1.07;;
4694;SDS011;2361;49.540;8.390;2023-03-31T02:36:01;1.03;;;0.70;;
4694;SDS011;2361;49.540;8.390;2023-03-31T02:38:30;3.73;;;1.10;;
4694;SDS011;2361;49.540;8.390;2023-03-31T02:41:04;1.77;;;0.70;;
4694;SDS011;2361;49.540;8.390;2023-03-31T02:43:32;1.03;;;0.63;;
4694;SDS011;2361;49.540;8.390;2023-03-31T02:45:59;3.40;;;1.10;;
4694;SDS011;2361;49.540;8.390;2023-03-31T02:48:30;0.60;;;0.60;;
4694;SDS011;2361;49.540;8.390;2023-03-31T03:06:14;0.90;;;0.67;;
4694;SDS011;2361;49.540;8.390;2023-03-31T03:09:05;0.80;;;0.80;;
4694;SDS011;2361;49.540;8.390;2023-03-31T03:11:38;1.03;;;0.80;;
4694;SDS011;2361;49.540;8.390;2023-03-31T03:17:03;0.57;;;0.57;;
4694;SDS011;2361;49.540;8.390;2023-03-31T03:19:36;1.00;;;0.67;;
4694;SDS011;2361;49.540;8.390;2023-03-31T03:22:03;1.53;;;0.80;;
4694;SDS011;2361;49.540;8.390;2023-03-31T03:24:31;1.50;;;0.73;;
4694;SDS011;2361;49.540;8.390;2023-03-31T03:26:59;0.80;;;0.80;;
4694;SDS011;2361;49.540;8.390;2023-03-31T03:29:26;0.70;;;0.60;;
4694;SDS011;2361;49.540;8.390;2023-03-31T03:31:53;1.53;;;0.67;;
4694;SDS011;2361;49.540;8.390;2023-03-31T03:34:20;0.60;;;0.60;;
4694;SDS011;2361;49.540;8.390;2023-03-31T03:36:47;0.80;;;0.60;;
4694;SDS011;2361;49.540;8.390;2023-03-31T03:39:14;0.57;;;0.57;;
4694;SDS011;2361;49.540;8.390;2023-03-31T03:41:41;0.93;;;0.60;;
4694;SDS011;2361;49.540;8.390;2023-03-31T03:44:08;4.23;;;0.90;;
4694;SDS011;2361;49.540;8.390;2023-03-31T03:46:35;5.07;;;0.83;;
4694;SDS011;2361;49.540;8.390;2023-03-31T03:49:02;0.70;;;0.70;;
4694;SDS011;2361;49.540;8.390;2023-03-31T03:51:29;3.10;;;0.80;;
4694;SDS011;2361;49.540;8.390;2023-03-31T03:53:56;1.03;;;0.60;;
4694;SDS011;2361;49.540;8.390;2023-03-31T03:56:23;0.90;;;0.60;;
4694;SDS011;2361;49.540;8.390;2023-03-31T03:58:51;1.87;;;0.73;;
4694;SDS011;2361;49.540;8.390;2023-03-31T04:01:18;3.93;;;0.70;;
4694;SDS011;2361;49.540;8.390;2023-03-31T04:03:46;2.93;;;1.00;;
4694;SDS011;2361;49.540;8.390;2023-03-31T04:06:13;2.63;;;0.80;;
4694;SDS011;2361;49.540;8.390;2023-03-31T04:08:40;0.70;;;0.70;;
4694;SDS011;2361;49.540;8.390;2023-03-31T04:11:11;1.10;;;0.67;;
4694;SDS011;2361;49.540;8.390;2023-03-31T04:13:44;0.77;;;0.57;;
4694;SDS011;2361;49.540;8.390;2023-03-31T04:16:12;0.60;;;0.60;;
4694;SDS011;2361;49.540;8.390;2023-03-31T04:18:39;2.00;;;0.63;;
4694;SDS011;2361;49.540;8.390;2023-03-31T04:21:08;0.93;;;0.93;;
4694;SDS011;2361;49.540;8.390;2023-03-31T04:23:38;1.30;;;0.70;;
4694;SDS011;2361;49.540;8.390;2023-03-31T04:26:11;0.60;;;0.60;;
4694;SDS011;2361;49.540;8.390;2023-03-31T04:28:39;0.50;;;0.50;;
4694;SDS011;2361;49.540;8.390;2023-03-31T04:31:08;2.30;;;0.90;;
4694;SDS011;2361;49.540;8.390;2023-03-31T04:33:41;0.60;;;0.60;;
4694;SDS011;2361;49.540;8.390;2023-03-31T04:36:11;2.30;;;0.90;;
4694;SDS011;2361;49.540;8.390;2023-03-31T04:38:44;0.80;;;0.63;;
4694;SDS011;2361;49.540;8.390;2023-03-31T04:41:16;0.60;;;0.60;;
4694;SDS011;2361;49.540;8.390;2023-03-31T04:43:43;1.33;;;1.00;;
4694;SDS011;2361;49.540;8.390;2023-03-31T04:46:10;0.50;;;0.50;;
4694;SDS011;2361;49.540;8.390;2023-03-31T04:48:37;1.93;;;0.90;;
4694;SDS011;2361;49.540;8.390;2023-03-31T04:51:04;0.50;;;0.50;;
4694;SDS011;2361;49.540;8.390;2023-03-31T04:53:32;3.23;;;0.77;;
4694;SDS011;2361;49.540;8.390;2023-03-31T04:55:59;1.90;;;0.80;;
4694;SDS011;2361;49.540;8.390;2023-03-31T04:58:26;1.87;;;1.03;;
4694;SDS011;2361;49.540;8.390;2023-03-31T05:00:53;1.50;;;0.77;;
4694;SDS011;2361;49.540;8.390;2023-03-31T05:03:20;5.40;;;1.03;;
4694;SDS011;2361;49.540;8.390;2023-03-31T05:05:47;1.30;;;1.23;;
4694;SDS011;2361;49.540;8.390;2023-03-31T05:08:14;0.97;;;0.60;;
4694;SDS011;2361;49.540;8.390;2023-03-31T05:10:41;0.53;;;0.50;;
4694;SDS011;2361;49.540;8.390;2023-03-31T05:13:09;0.30;;;0.30;;
4694;SDS011;2361;49.540;8.390;2023-03-31T05:15:36;1.50;;;1.07;;
4694;SDS011;2361;49.540;8.390;2023-03-31T05:18:05;0.77;;;0.73;;
4694;SDS011;2361;49.540;8.390;2023-03-31T05:20:33;1.47;;;1.00;;
4694;SDS011;2361;49.540;8.390;2023-03-31T05:23:00;0.53;;;0.50;;
4694;SDS011;2361;49.540;8.390;2023-03-31T05:25:27;1.77;;;0.90;;
4694;SDS011;2361;49.540;8.390;2023-03-31T05:27:58;0.60;;;0.60;;
4694;SDS011;2361;49.540;8.390;2023-03-31T05:30:26;1.00;;;1.00;;
4694;SDS011;2361;49.540;8.390;2023-03-31T05:32:54;0.40;;;0.40;;
4694;SDS011;2361;49.540;8.390;2023-03-31T05:35:21;1.30;;;0.90;;
4694;SDS011;2361;49.540;8.390;2023-03-31T05:37:48;1.30;;;1.20;;
4694;SDS011;2361;49.540;8.390;2023-03-31T05:40:16;1.13;;;1.13;;
4694;SDS011;2361;49.540;8.390;2023-03-31T05:42:43;2.03;;;0.90;;
4694;SDS011;2361;49.540;8.390;2023-03-31T05:45:10;0.67;;;0.67;;
4694;SDS011;2361;49.540;8.390;2023-03-31T05:47:37;1.03;;;0.63;;
4694;SDS011;2361;49.540;8.390;2023-03-31T05:50:05;1.00;;;0.90;;
4694;SDS011;2361;49.540;8.390;2023-03-31T05:52:34;1.43;;;1.07;;
4694;SDS011;2361;49.540;8.390;2023-03-31T05:55:02;0.57;;;0.57;;
4694;SDS011;2361;49.540;8.390;2023-03-31T05:57:30;0.97;;;0.40;;
4694;SDS011;2361;49.540;8.390;2023-03-31T05:59:57;4.23;;;0.90;;
4694;SDS011;2361;49.540;8.390;2023-03-31T06:02:24;2.27;;;1.07;;
4694;SDS011;2361;49.540;8.390;2023-03-31T06:04:51;1.57;;;1.37;;
4694;SDS011;2361;49.540;8.390;2023-03-31T06:07:18;2.20;;;1.53;;
4694;SDS011;2361;49.540;8.390;2023-03-31T06:09:45;1.43;;;0.80;;
4694;SDS011;2361;49.540;8.390;2023-03-31T06:12:12;1.23;;;1.10;;
4694;SDS011;2361;49.540;8.390;2023-03-31T06:14:39;1.00;;;1.00;;
4694;SDS011;2361;49.540;8.390;2023-03-31T06:17:06;2.20;;;1.47;;
4694;SDS011;2361;49.540;8.390;2023-03-31T06:19:33;2.33;;;1.70;;
4694;SDS011;2361;49.540;8.390;2023-03-31T06:22:00;2.37;;;2.17;;
4694;SDS011;2361;49.540;8.390;2023-03-31T06:24:27;5.00;;;1.87;;
4694;SDS011;2361;49.540;8.390;2023-03-31T06:26:54;0.70;;;0.70;;
4694;SDS011;2361;49.540;8.390;2023-03-31T06:29:21;1.53;;;1.10;;
4694;SDS011;2361;49.540;8.390;2023-03-31T06:31:48;1.07;;;1.03;;
4694;SDS011;2361;49.540;8.390;2023-03-31T06:34:15;1.30;;;1.07;;
4694;SDS011;2361;49.540;8.390;2023-03-31T06:36:43;2.77;;;1.70;;
4694;SDS011;2361;49.540;8.390;2023-03-31T06:39:10;6.10;;;1.60;;
4694;SDS011;2361;49.540;8.390;2023-03-31T06:41:37;0.97;;;0.87;;
4694;SDS011;2361;49.540;8.390;2023-03-31T06:44:04;1.57;;;1.27;;
4694;SDS011;2361;49.540;8.390;2023-03-31T06:46:31;1.13;;;1.03;;
4694;SDS011;2361;49.540;8.390;2023-03-31T06:48:58;4.07;;;1.90;;
4694;SDS011;2361;49.540;8.390;2023-03-31T06:51:25;1.37;;;1.27;;
4694;SDS011;2361;49.540;8.390;2023-03-31T06:53:52;1.40;;;1.10;;
4694;SDS011;2361;49.540;8.390;2023-03-31T06:56:19;7.43;;;2.20;;
4694;SDS011;2361;49.540;8.390;2023-03-31T06:58:47;5.37;;;1.00;;
4694;SDS011;2361;49.540;8.390;2023-03-31T07:01:13;3.87;;;1.80;;
4694;SDS011;2361;49.540;8.390;2023-03-31T07:03:40;1.13;;;1.13;;
4694;SDS011;2361;49.540;8.390;2023-03-31T07:06:08;0.80;;;0.80;;
4694;SDS011;2361;49.540;8.390;2023-03-31T07:08:34;1.87;;;1.77;;
4694;SDS011;2361;49.540;8.390;2023-03-31T07:11:01;1.20;;;1.10;;
4694;SDS011;2361;49.540;8.390;2023-03-31T07:13:29;3.03;;;1.60;;
4694;SDS011;2361;49.540;8.390;2023-03-31T07:15:56;3.00;;;1.90;;
4694;SDS011;2361;49.540;8.390;2023-03-31T07:18:23;3.63;;;1.00;;
4694;SDS011;2361;49.540;8.390;2023-03-31T07:20:59;2.33;;;2.13;;
4694;SDS011;2361;49.540;8.390;2023-03-31T07:23:26;2.57;;;2.37;;
4694;SDS011;2361;49.540;8.390;2023-03-31T07:25:54;1.37;;;1.27;;
4694;SDS011;2361;49.540;8.390;2023-03-31T07:28:21;2.43;;;2.30;;
4694;SDS011;2361;49.540;8.390;2023-03-31T07:30:48;7.00;;;1.43;;
4694;SDS011;2361;49.540;8.390;2023-03-31T07:33:14;2.40;;;2.20;;
4694;SDS011;2361;49.540;8.390;2023-03-31T07:35:41;1.50;;;1.40;;
4694;SDS011;2361;49.540;8.390;2023-03-31T07:38:09;3.93;;;2.17;;
4694;SDS011;2361;49.540;8.390;2023-03-31T07:40:38;2.30;;;2.10;;
4694;SDS011;2361;49.540;8.390;2023-03-31T07:43:06;4.87;;;3.80;;
4694;SDS011;2361;49.540;8.390;2023-03-31T07:45:33;3.47;;;3.17;;
4694;SDS011;2361;49.540;8.390;2023-03-31T07:48:01;3.30;;;3.10;;
4694;SDS011;2361;49.540;8.390;2023-03-31T07:50:28;2.63;;;1.83;;
4694;SDS011;2361;49.540;8.390;2023-03-31T07:52:55;4.17;;;3.60;;
4694;SDS011;2361;49.540;8.390;2023-03-31T07:55:22;9.30;;;2.63;;
4694;SDS011;2361;49.540;8.390;2023-03-31T07:57:51;3.17;;;2.87;;
4694;SDS011;2361;49.540;8.390;2023-03-31T08:00:18;3.00;;;2.53;;
4694;SDS011;2361;49.540;8.390;2023-03-31T08:02:46;4.30;;;2.27;;
4694;SDS011;2361;49.540;8.390;2023-03-31T08:05:14;3.03;;;2.73;;
4694;SDS011;2361;49.540;8.390;2023-03-31T08:07:44;4.93;;;3.23;;
4694;SDS011;2361;49.540;8.390;2023-03-31T08:10:19;5.77;;;3.80;;
4694;SDS011;2361;49.540;8.390;2023-03-31T08:12:50;4.47;;;3.10;;
4694;SDS011;2361;49.540;8.390;2023-03-31T08:15:17;2.23;;;2.03;;
4694;SDS011;2361;49.540;8.390;2023-03-31T08:17:45;4.43;;;3.20;;
4694;SDS011;2361;49.540;8.390;2023-03-31T08:20:12;5.53;;;2.73;;
4694;SDS011;2361;49.540;8.390;2023-03-31T08:22:39;6.87;;;2.90;;
4694;SDS011;2361;49.540;8.390;2023-03-31T08:25:06;3.93;;;2.80;;
4694;SDS011;2361;49.540;8.390;2023-03-31T08:27:35;5.07;;;3.13;;
4694;SDS011;2361;49.540;8.390;2023-03-31T08:30:06;3.20;;;2.37;;
4694;SDS011;2361;49.540;8.390;2023-03-31T08:32:36;2.10;;;2.00;;
4694;SDS011;2361;49.540;8.390;2023-03-31T08:35:03;2.03;;;1.80;;
4694;SDS011;2361;49.540;8.390;2023-03-31T08:37:31;2.60;;;2.00;;
4694;SDS011;2361;49.540;8.390;2023-03-31T08:39:58;3.03;;;2.23;;
4694;SDS011;2361;49.540;8.390;2023-03-31T08:42:33;4.30;;;1.90;;
4694;SDS011;2361;49.540;8.390;2023-03-31T08:48:03;3.40;;;2.50;;
4694;SDS011;2361;49.540;8.390;2023-03-31T08:50:34;6.30;;;1.70;;
4694;SDS011;2361;49.540;8.390;2023-03-31T08:53:20;5.80;;;1.53;;
4694;SDS011;2361;49.540;8.390;2023-03-31T08:55:55;2.07;;;1.97;;
4694;SDS011;2361;49.540;8.390;2023-03-31T08:58:40;3.10;;;2.60;;
4694;SDS011;2361;49.540;8.390;2023-03-31T09:10:48;2.53;;;2.33;;
4694;SDS011;2361;49.540;8.390;2023-03-31T09:13:32;4.20;;;2.83;;
4694;SDS011;2361;49.540;8.390;2023-03-31T09:18:53;3.63;;;0.90;;
4694;SDS011;2361;49.540;8.390;2023-03-31T09:21:29;0.53;;;0.53;;
4694;SDS011;2361;49.540;8.390;2023-03-31T09:29:21;0.87;;;0.87;;
4694;SDS011;2361;49.540;8.390;2023-03-31T09:32:00;0.40;;;0.40;;
4694;SDS011;2361;49.540;8.390;2023-03-31T09:34:39;1.63;;;0.57;;
4694;SDS011;2361;49.540;8.390;2023-03-31T09:37:08;4.27;;;0.60;;
4694;SDS011;2361;49.540;8.390;2023-03-31T09:39:37;1.03;;;0.80;;
4694;SDS011;2361;49.540;8.390;2023-03-31T09:42:05;1.40;;;0.40;;
4694;SDS011;2361;49.540;8.390;2023-03-31T09:44:37;0.43;;;0.43;;
4694;SDS011;2361;49.540;8.390;2023-03-31T09:47:19;0.50;;;0.50;;
4694;SDS011;2361;49.540;8.390;2023-03-31T09:50:04;0.87;;;0.80;;
4694;SDS011;2361;49.540;8.390;2023-03-31T09:52:38;2.20;;;0.80;;
4694;SDS011;2361;49.540;8.390;2023-03-31T09:55:20;0.57;;;0.57;;
4694;SDS011;2361;49.540;8.390;2023-03-31T09:58:11;1.50;;;0.87;;
4694;SDS011;2361;49.540;8.390;2023-03-31T10:00:41;1.60;;;0.90;;
4694;SDS011;2361;49.540;8.390;2023-03-31T10:03:22;0.30;;;0.30;;
4694;SDS011;2361;49.540;8.390;2023-03-31T10:05:51;0.87;;;0.87;;
4694;SDS011;2361;49.540;8.390;2023-03-31T10:13:43;2.73;;;0.83;;
4694;SDS011;2361;49.540;8.390;2023-03-31T10:16:30;0.90;;;0.90;;
4694;SDS011;2361;49.540;8.390;2023-03-31T10:19:20;4.33;;;0.80;;
4694;SDS011;2361;49.540;8.390;2023-03-31T10:21:57;1.00;;;0.97;;
4694;SDS011;2361;49.540;8.390;2023-03-31T10:24:37;1.07;;;0.67;;
4694;SDS011;2361;49.540;8.390;2023-03-31T10:30:07;4.97;;;1.33;;
4694;SDS011;2361;49.540;8.390;2023-03-31T10:32:40;3.47;;;1.17;;
4694;SDS011;2361;49.540;8.390;2023-03-31T10:38:00;1.50;;;0.93;;
4694;SDS011;2361;49.540;8.390;2023-03-31T10:40:38;2.70;;;1.17;;
4694;SDS011;2361;49.540;8.390;2023-03-31T10:43:19;2.60;;;1.30;;
4694;SDS011;2361;49.540;8.390;2023-03-31T10:45:54;1.77;;;0.70;;
4694;SDS011;2361;49.540;8.390;2023-03-31T10:48:30;2.77;;;1.50;;
4694;SDS011;2361;49.540;8.390;2023-03-31T10:51:11;2.30;;;1.40;;
4694;SDS011;2361;49.540;8.390;2023-03-31T10:53:51;3.17;;;1.10;;
4694;SDS011;2361;49.540;8.390;2023-03-31T11:14:12;0.37;;;0.37;;
4694;SDS011;2361;49.540;8.390;2023-03-31T11:25:51;0.67;;;0.50;;
4694;SDS011;2361;49.540;8.390;2023-03-31T11:34:13;3.03;;;0.93;;
4694;SDS011;2361;49.540;8.390;2023-03-31T11:40:15;1.13;;;0.83;;
4694;SDS011;2361;49.540;8.390;2023-03-31T11:46:14;6.20;;;0.73;;
4694;SDS011;2361;49.540;8.390;2023-03-31T11:49:03;2.63;;;0.90;;
4694;SDS011;2361;49.540;8.390;2023-03-31T11:51:54;4.57;;;0.90;;
4694;SDS011;2361;49.540;8.390;2023-03-31T11:57:02;1.10;;;1.10;;
4694;SDS011;2361;49.540;8.390;2023-03-31T11:59:39;1.13;;;0.90;;
4694;SDS011;2361;49.540;8.390;2023-03-31T12:02:09;3.30;;;0.90;;
4694;SDS011;2361;49.540;8.390;2023-03-31T12:05:07;3.47;;;1.37;;
4694;SDS011;2361;49.540;8.390;2023-03-31T12:10:28;1.77;;;1.20;;
4694;SDS011;2361;49.540;8.390;2023-03-31T12:22:13;6.03;;;1.20;;
4694;SDS011;2361;49.540;8.390;2023-03-31T12:24:53;0.43;;;0.43;;
4694;SDS011;2361;49.540;8.390;2023-03-31T12:44:55;1.00;;;0.60;;
4694;SDS011;2361;49.540;8.390;2023-03-31T12:53:24;1.57;;;0.80;;
4694;SDS011;2361;49.540;8.390;2023-03-31T12:56:26;0.60;;;0.60;;
4694;SDS011;2361;49.540;8.390;2023-03-31T12:58:53;1.47;;;0.70;;
4694;SDS011;2361;49.540;8.390;2023-03-31T13:01:23;0.40;;;0.40;;
4694;SDS011;2361;49.540;8.390;2023-03-31T13:06:50;1.33;;;0.73;;
4694;SDS011;2361;49.540;8.390;2023-03-31T13:11:54;0.43;;;0.43;;
4694;SDS011;2361;49.540;8.390;2023-03-31T13:17:12;0.97;;;0.50;;
4694;SDS011;2361;49.540;8.390;2023-03-31T13:19:47;0.60;;;0.60;;
4694;SDS011;2361;49.540;8.390;2023-03-31T13:28:09;2.70;;;1.10;;
4694;SDS011;2361;49.540;8.390;2023-03-31T13:35:53;1.47;;;0.50;;
4694;SDS011;2361;49.540;8.390;2023-03-31T13:41:51;0.97;;;0.50;;
4694;SDS011;2361;49.540;8.390;2023-03-31T14:08:52;0.87;;;0.70;;
4694;SDS011;2361;49.540;8.390;2023-03-31T14:11:33;0.30;;;0.30;;
4694;SDS011;2361;49.540;8.390;2023-03-31T14:14:02;0.80;;;0.60;;
4694;SDS011;2361;49.540;8.390;2023-03-31T14:16:39;1.40;;;0.70;;
4694;SDS011;2361;49.540;8.390;2023-03-31T14:28:03;0.40;;;0.40;;
4694;SDS011;2361;49.540;8.390;2023-03-31T14:37:12;1.30;;;0.70;;
4694;SDS011;2361;49.540;8.390;2023-03-31T14:39:46;0.50;;;0.50;;
4694;SDS011;2361;49.540;8.390;2023-03-31T14:45:05;1.70;;;0.73;;
4694;SDS011;2361;49.540;8.390;2023-03-31T14:47:56;1.33;;;0.60;;
4694;SDS011;2361;49.540;8.390;2023-03-31T14:50:42;1.90;;;0.83;;
4694;SDS011;2361;49.540;8.390;2023-03-31T14:53:21;1.13;;;0.60;;
4694;SDS011;2361;49.540;8.390;2023-03-31T14:55:51;3.63;;;0.80;;
4694;SDS011;2361;49.540;8.390;2023-03-31T14:58:28;4.53;;;0.80;;
4694;SDS011;2361;49.540;8.390;2023-03-31T15:01:01;0.50;;;0.50;;
4694;SDS011;2361;49.540;8.390;2023-03-31T15:03:32;0.50;;;0.50;;
4694;SDS011;2361;49.540;8.390;2023-03-31T15:06:02;0.70;;;0.57;;
4694;SDS011;2361;49.540;8.390;2023-03-31T15:08:31;0.90;;;0.90;;
4694;SDS011;2361;49.540;8.390;2023-03-31T15:11:01;1.53;;;0.90;;
4694;SDS011;2361;49.540;8.390;2023-03-31T15:19:10;1.97;;;0.77;;
4694;SDS011;2361;49.540;8.390;2023-03-31T15:21:40;2.20;;;0.80;;
4694;SDS011;2361;49.540;8.390;2023-03-31T15:24:12;2.57;;;0.67;;
4694;SDS011;2361;49.540;8.390;2023-03-31T15:29:36;1.20;;;0.83;;
4694;SDS011;2361;49.540;8.390;2023-03-31T15:34:57;1.70;;;1.00;;
4694;SDS011;2361;49.540;8.390;2023-03-31T15:37:37;0.70;;;0.70;;
4694;SDS011;2361;49.540;8.390;2023-03-31T15:40:20;1.57;;;1.00;;
4694;SDS011;2361;49.540;8.390;2023-03-31T15:42:52;0.70;;;0.60;;
4694;SDS011;2361;49.540;8.390;2023-03-31T15:45:47;1.10;;;1.00;;
4694;SDS011;2361;49.540;8.390;2023-03-31T15:51:12;1.27;;;0.50;;
4694;SDS011;2361;49.540;8.390;2023-03-31T15:53:51;0.73;;;0.60;;
4694;SDS011;2361;49.540;8.390;2023-03-31T15:56:23;2.33;;;0.93;;
4694;SDS011;2361;49.540;8.390;2023-03-31T15:58:58;0.73;;;0.50;;
4694;SDS011;2361;49.540;8.390;2023-03-31T16:01:29;1.50;;;0.63;;
4694;SDS011;2361;49.540;8.390;2023-03-31T16:04:10;1.57;;;0.70;;
4694;SDS011;2361;49.540;8.390;2023-03-31T16:09:28;0.70;;;0.70;;
4694;SDS011;2361;49.540;8.390;2023-03-31T16:15:04;0.83;;;0.40;;
4694;SDS011;2361;49.540;8.390;2023-03-31T16:17:37;0.80;;;0.63;;
4694;SDS011;2361;49.540;8.390;2023-03-31T16:20:26;4.13;;;0.90;;
4694;SDS011;2361;49.540;8.390;2023-03-31T16:22:58;0.87;;;0.70;;
4694;SDS011;2361;49.540;8.390;2023-03-31T16:25:26;3.63;;;1.07;;
4694;SDS011;2361;49.540;8.390;2023-03-31T16:27:57;3.20;;;1.23;;
4694;SDS011;2361;49.540;8.390;2023-03-31T16:30:36;1.77;;;0.80;;
4694;SDS011;2361;49.540;8.390;2023-03-31T16:33:10;3.67;;;1.00;;
4694;SDS011;2361;49.540;8.390;2023-03-31T16:35:40;0.60;;;0.60;;
4694;SDS011;2361;49.540;8.390;2023-03-31T16:38:11;0.70;;;0.70;;
4694;SDS011;2361;49.540;8.390;2023-03-31T16:40:42;0.80;;;0.80;;
4694;SDS011;2361;49.540;8.390;2023-03-31T16:43:12;1.00;;;0.70;;
4694;SDS011;2361;49.540;8.390;2023-03-31T16:45:51;1.20;;;0.80;;
4694;SDS011;2361;49.540;8.390;2023-03-31T16:48:25;2.37;;;0.90;;
4694;SDS011;2361;49.540;8.390;2023-03-31T16:50:55;1.73;;;0.90;;
4694;SDS011;2361;49.540;8.390;2023-03-31T16:53:24;1.43;;;0.70;;
4694;SDS011;2361;49.540;8.390;2023-03-31T16:55:54;2.20;;;0.80;;
4694;SDS011;2361;49.540;8.390;2023-03-31T16:58:22;0.70;;;0.63;;
4694;SDS011;2361;49.540;8.390;2023-03-31T17:00:49;4.10;;;1.00;;
4694;SDS011;2361;49.540;8.390;2023-03-31T17:03:17;4.33;;;0.87;;
4694;SDS011;2361;49.540;8.390;2023-03-31T17:05:45;1.23;;;0.70;;
4694;SDS011;2361;49.540;8.390;2023-03-31T17:08:16;1.63;;;0.70;;
4694;SDS011;2361;49.540;8.390;2023-03-31T17:10:50;1.37;;;0.67;;
4694;SDS011;2361;49.540;8.390;2023-03-31T17:13:26;1.03;;;0.90;;
4694;SDS011;2361;49.540;8.390;2023-03-31T17:15:53;1.53;;;0.77;;
4694;SDS011;2361;49.540;8.390;2023-03-31T17:18:29;0.70;;;0.50;;
4694;SDS011;2361;49.540;8.390;2023-03-31T17:21:07;1.40;;;0.70;;
4694;SDS011;2361;49.540;8.390;2023-03-31T17:23:39;1.93;;;0.80;;
4694;SDS011;2361;49.540;8.390;2023-03-31T17:26:06;1.27;;;0.57;;
4694;SDS011;2361;49.540;8.390;2023-03-31T17:28:35;0.50;;;0.50;;
4694;SDS011;2361;49.540;8.390;2023-03-31T17:31:16;0.80;;;0.70;;
4694;SDS011;2361;49.540;8.390;2023-03-31T17:33:45;0.43;;;0.43;;
4694;SDS011;2361;49.540;8.390;2023-03-31T17:36:13;1.50;;;0.90;;
4694;SDS011;2361;49.540;8.390;2023-03-31T17:38:41;0.70;;;0.67;;
4694;SDS011;2361;49.540;8.390;2023-03-31T17:41:09;0.90;;;0.90;;
4694;SDS011;2361;49.540;8.390;2023-03-31T17:43:38;0.80;;;0.80;;
4694;SDS011;2361;49.540;8.390;2023-03-31T17:46:09;0.60;;;0.57;;
4694;SDS011;2361;49.540;8.390;2023-03-31T17:48:38;0.50;;;0.50;;
4694;SDS011;2361;49.540;8.390;2023-03-31T17:51:07;0.40;;;0.40;;
4694;SDS011;2361;49.540;8.390;2023-03-31T17:53:39;1.20;;;0.60;;
4694;SDS011;2361;49.540;8.390;2023-03-31T17:56:07;0.50;;;0.50;;
4694;SDS011;2361;49.540;8.390;2023-03-31T17:58:34;0.93;;;0.70;;
4694;SDS011;2361;49.540;8.390;2023-03-31T18:01:02;1.43;;;0.70;;
4694;SDS011;2361;49.540;8.390;2023-03-31T18:03:31;1.33;;;0.93;;
4694;SDS011;2361;49.540;8.390;2023-03-31T18:06:03;0.50;;;0.50;;
4694;SDS011;2361;49.540;8.390;2023-03-31T18:08:33;1.17;;;0.83;;
4694;SDS011;2361;49.540;8.390;2023-03-31T18:11:01;1.53;;;0.80;;
4694;SDS011;2361;49.540;8.390;2023-03-31T18:13:30;5.03;;;2.30;;
4694;SDS011;2361;49.540;8.390;2023-03-31T18:15:59;0.93;;;0.90;;
4694;SDS011;2361;49.540;8.390;2023-03-31T18:18:27;1.23;;;0.50;;
4694;SDS011;2361;49.540;8.390;2023-03-31T18:20:55;0.80;;;0.50;;
4694;SDS011;2361;49.540;8.390;2023-03-31T18:23:22;0.70;;;0.70;;
4694;SDS011;2361;49.540;8.390;2023-03-31T18:25:49;1.63;;;0.63;;
4694;SDS011;2361;49.540;8.390;2023-03-31T18:28:16;0.87;;;0.57;;
4694;SDS011;2361;49.540;8.390;2023-03-31T18:30:43;2.37;;;1.00;;
4694;SDS011;2361;49.540;8.390;2023-03-31T18:33:12;2.87;;;1.00;;
4694;SDS011;2361;49.540;8.390;2023-03-31T18:35:39;1.37;;;0.70;;
4694;SDS011;2361;49.540;8.390;2023-03-31T18:38:06;3.20;;;0.97;;
4694;SDS011;2361;49.540;8.390;2023-03-31T18:40:34;2.80;;;0.73;;
4694;SDS011;2361;49.540;8.390;2023-03-31T18:43:02;1.70;;;1.03;;
4694;SDS011;2361;49.540;8.390;2023-03-31T18:45:29;0.50;;;0.40;;
4694;SDS011;2361;49.540;8.390;2023-03-31T18:47:56;0.47;;;0.47;;
4694;SDS011;2361;49.540;8.390;2023-03-31T18:50:23;0.80;;;0.53;;
4694;SDS011;2361;49.540;8.390;2023-03-31T18:52:51;0.93;;;0.50;;
4694;SDS011;2361;49.540;8.390;2023-03-31T18:55:19;0.30;;;0.30;;
4694;SDS011;2361;49.540;8.390;2023-03-31T18:57:47;0.50;;;0.50;;
4694;SDS011;2361;49.540;8.390;2023-03-31T19:00:14;2.93;;;0.63;;
4694;SDS011;2361;49.540;8.390;2023-03-31T19:02:42;5.80;;;3.53;;
4694;SDS011;2361;49.540;8.390;2023-03-31T19:05:09;1.47;;;1.37;;
4694;SDS011;2361;49.540;8.390;2023-03-31T19:07:37;2.23;;;1.70;;
4694;SDS011;2361;49.540;8.390;2023-03-31T19:10:04;0.60;;;0.50;;
4694;SDS011;2361;49.540;8.390;2023-03-31T19:12:32;5.80;;;0.53;;
4694;SDS011;2361;49.540;8.390;2023-03-31T19:14:59;2.63;;;0.60;;
4694;SDS011;2361;49.540;8.390;2023-03-31T19:17:27;0.40;;;0.40;;
4694;SDS011;2361;49.540;8.390;2023-03-31T19:19:54;1.00;;;0.50;;
4694;SDS011;2361;49.540;8.390;2023-03-31T19:22:20;1.17;;;0.60;;
4694;SDS011;2361;49.540;8.390;2023-03-31T19:24:47;0.73;;;0.73;;
4694;SDS011;2361;49.540;8.390;2023-03-31T19:27:14;0.30;;;0.30;;
4694;SDS011;2361;49.540;8.390;2023-03-31T19:29:41;1.53;;;0.40;;
4694;SDS011;2361;49.540;8.390;2023-03-31T19:32:08;1.13;;;0.50;;
4694;SDS011;2361;49.540;8.390;2023-03-31T19:34:36;0.60;;;0.40;;
4694;SDS011;2361;49.540;8.390;2023-03-31T19:37:03;0.30;;;0.30;;
4694;SDS011;2361;49.540;8.390;2023-03-31T19:39:31;0.77;;;0.50;;